sensor_id;sensor_type;location;lat;lon;timestamp;P1;durP1;ratioP1;P2;durP2;ratioP2
39314;SDS011;28703;44.412;11.918;2023-12-07T00:01:38;28.23;;;20.88;;
39314;SDS011;28703;44.412;11.918;2023-12-07T00:04:04;23.80;;;17.85;;
39314;SDS011;28703;44.412;11.918;2023-12-07T00:06:30;23.60;;;18.08;;
39314;SDS011;28703;44.412;11.918;2023-12-07T00:08:56;22.77;;;17.35;;
39314;SDS011;28703;44.412;11.918;2023-12-07T00:11:23;21.75;;;17.10;;
39314;SDS011;28703;44.412;11.918;2023-12-07T00:13:49;24.25;;;16.48;;
39314;SDS011;28703;44.412;11.918;2023-12-07T00:16:15;19.67;;;16.15;;
39314;SDS011;28703;44.412;11.918;2023-12-07T00:18:40;21.10;;;15.52;;
39314;SDS011;28703;44.412;11.918;2023-12-07T00:21:09;20.15;;;16.00;;
39314;SDS011;28703;44.412;11.918;2023-12-07T00:23:36;21.08;;;16.95;;
39314;SDS011;28703;44.412;11.918;2023-12-07T00:26:04;20.35;;;16.70;;
39314;SDS011;28703;44.412;11.918;2023-12-07T00:28:31;22.38;;;16.35;;
39314;SDS011;28703;44.412;11.918;2023-12-07T00:30:56;18.60;;;14.95;;
39314;SDS011;28703;44.412;11.918;2023-12-07T00:33:22;21.60;;;14.73;;
39314;SDS011;28703;44.412;11.918;2023-12-07T00:35:48;19.65;;;14.90;;
39314;SDS011;28703;44.412;11.918;2023-12-07T00:38:14;19.90;;;14.40;;
39314;SDS011;28703;44.412;11.918;2023-12-07T00:40:40;18.70;;;15.00;;
39314;SDS011;28703;44.412;11.918;2023-12-07T00:43:06;19.98;;;15.30;;
39314;SDS011;28703;44.412;11.918;2023-12-07T00:45:32;18.95;;;14.88;;
39314;SDS011;28703;44.412;11.918;2023-12-07T00:47:59;18.98;;;13.23;;
39314;SDS011;28703;44.412;11.918;2023-12-07T00:50:25;15.75;;;12.75;;
39314;SDS011;28703;44.412;11.918;2023-12-07T00:52:51;16.05;;;12.48;;
39314;SDS011;28703;44.412;11.918;2023-12-07T00:55:17;17.40;;;14.00;;
39314;SDS011;28703;44.412;11.918;2023-12-07T00:57:42;15.50;;;13.38;;
39314;SDS011;28703;44.412;11.918;2023-12-07T01:00:08;18.55;;;13.90;;
39314;SDS011;28703;44.412;11.918;2023-12-07T01:02:35;17.55;;;13.73;;
39314;SDS011;28703;44.412;11.918;2023-12-07T01:05:01;15.88;;;13.00;;
39314;SDS011;28703;44.412;11.918;2023-12-07T01:07:27;18.38;;;14.30;;
39314;SDS011;28703;44.412;11.918;2023-12-07T01:09:53;18.27;;;14.23;;
39314;SDS011;28703;44.412;11.918;2023-12-07T01:12:19;16.48;;;13.88;;
39314;SDS011;28703;44.412;11.918;2023-12-07T01:14:46;19.63;;;14.52;;
39314;SDS011;28703;44.412;11.918;2023-12-07T01:17:12;15.38;;;13.05;;
39314;SDS011;28703;44.412;11.918;2023-12-07T01:19:38;15.35;;;12.25;;
39314;SDS011;28703;44.412;11.918;2023-12-07T01:22:04;13.65;;;11.52;;
39314;SDS011;28703;44.412;11.918;2023-12-07T01:24:29;15.82;;;12.18;;
39314;SDS011;28703;44.412;11.918;2023-12-07T01:26:55;14.85;;;12.10;;
39314;SDS011;28703;44.412;11.918;2023-12-07T01:29:21;13.40;;;11.23;;
39314;SDS011;28703;44.412;11.918;2023-12-07T01:31:47;14.07;;;11.10;;
39314;SDS011;28703;44.412;11.918;2023-12-07T01:34:12;14.32;;;10.18;;
39314;SDS011;28703;44.412;11.918;2023-12-07T01:36:38;12.40;;;9.35;;
39314;SDS011;28703;44.412;11.918;2023-12-07T01:39:04;11.75;;;9.40;;
39314;SDS011;28703;44.412;11.918;2023-12-07T01:41:30;11.38;;;8.80;;
39314;SDS011;28703;44.412;11.918;2023-12-07T01:43:56;10.43;;;8.82;;
39314;SDS011;28703;44.412;11.918;2023-12-07T01:46:22;11.43;;;8.80;;
39314;SDS011;28703;44.412;11.918;2023-12-07T01:48:54;9.40;;;8.35;;
39314;SDS011;28703;44.412;11.918;2023-12-07T01:51:26;8.52;;;7.63;;
39314;SDS011;28703;44.412;11.918;2023-12-07T01:53:52;13.63;;;7.05;;
39314;SDS011;28703;44.412;11.918;2023-12-07T01:56:19;9.07;;;7.43;;
39314;SDS011;28703;44.412;11.918;2023-12-07T01:58:45;7.82;;;6.70;;
39314;SDS011;28703;44.412;11.918;2023-12-07T02:01:11;9.10;;;6.80;;
39314;SDS011;28703;44.412;11.918;2023-12-07T02:03:40;9.13;;;7.72;;
39314;SDS011;28703;44.412;11.918;2023-12-07T02:06:06;8.60;;;7.57;;
39314;SDS011;28703;44.412;11.918;2023-12-07T02:08:34;10.70;;;8.45;;
39314;SDS011;28703;44.412;11.918;2023-12-07T02:11:00;9.73;;;7.97;;
39314;SDS011;28703;44.412;11.918;2023-12-07T02:13:27;9.40;;;7.97;;
39314;SDS011;28703;44.412;11.918;2023-12-07T02:15:53;9.52;;;7.07;;
39314;SDS011;28703;44.412;11.918;2023-12-07T02:18:28;9.13;;;7.07;;
39314;SDS011;28703;44.412;11.918;2023-12-07T02:21:11;9.82;;;8.32;;
39314;SDS011;28703;44.412;11.918;2023-12-07T02:23:46;9.75;;;8.68;;
39314;SDS011;28703;44.412;11.918;2023-12-07T02:26:15;8.90;;;7.43;;
39314;SDS011;28703;44.412;11.918;2023-12-07T02:28:44;11.18;;;8.27;;
39314;SDS011;28703;44.412;11.918;2023-12-07T02:31:10;12.57;;;8.85;;
39314;SDS011;28703;44.412;11.918;2023-12-07T02:33:36;10.90;;;9.10;;
39314;SDS011;28703;44.412;11.918;2023-12-07T02:36:02;11.98;;;10.13;;
39314;SDS011;28703;44.412;11.918;2023-12-07T02:38:28;13.45;;;10.95;;
39314;SDS011;28703;44.412;11.918;2023-12-07T02:40:54;13.02;;;9.98;;
39314;SDS011;28703;44.412;11.918;2023-12-07T02:43:22;12.52;;;9.77;;
39314;SDS011;28703;44.412;11.918;2023-12-07T02:45:48;14.40;;;10.57;;
39314;SDS011;28703;44.412;11.918;2023-12-07T02:48:14;15.60;;;11.18;;
39314;SDS011;28703;44.412;11.918;2023-12-07T02:50:42;15.35;;;12.27;;
39314;SDS011;28703;44.412;11.918;2023-12-07T02:53:08;17.40;;;13.23;;
39314;SDS011;28703;44.412;11.918;2023-12-07T02:55:34;15.57;;;12.85;;
39314;SDS011;28703;44.412;11.918;2023-12-07T02:58:00;16.08;;;11.82;;
39314;SDS011;28703;44.412;11.918;2023-12-07T03:00:26;17.13;;;12.45;;
39314;SDS011;28703;44.412;11.918;2023-12-07T03:02:51;17.73;;;12.27;;
39314;SDS011;28703;44.412;11.918;2023-12-07T03:05:17;13.68;;;10.95;;
39314;SDS011;28703;44.412;11.918;2023-12-07T03:07:45;13.50;;;10.48;;
39314;SDS011;28703;44.412;11.918;2023-12-07T03:10:11;11.20;;;8.88;;
39314;SDS011;28703;44.412;11.918;2023-12-07T03:12:37;10.30;;;9.05;;
39314;SDS011;28703;44.412;11.918;2023-12-07T03:15:02;11.20;;;8.80;;
39314;SDS011;28703;44.412;11.918;2023-12-07T03:17:29;10.88;;;8.32;;
39314;SDS011;28703;44.412;11.918;2023-12-07T03:19:55;11.38;;;8.32;;
39314;SDS011;28703;44.412;11.918;2023-12-07T03:22:21;10.27;;;8.65;;
39314;SDS011;28703;44.412;11.918;2023-12-07T03:24:49;11.95;;;8.73;;
39314;SDS011;28703;44.412;11.918;2023-12-07T03:27:16;9.52;;;8.02;;
39314;SDS011;28703;44.412;11.918;2023-12-07T03:29:42;11.30;;;9.00;;
39314;SDS011;28703;44.412;11.918;2023-12-07T03:32:08;11.25;;;8.65;;
39314;SDS011;28703;44.412;11.918;2023-12-07T03:34:34;10.25;;;9.15;;
39314;SDS011;28703;44.412;11.918;2023-12-07T03:36:59;11.68;;;8.73;;
39314;SDS011;28703;44.412;11.918;2023-12-07T03:39:25;10.80;;;8.35;;
39314;SDS011;28703;44.412;11.918;2023-12-07T03:41:52;9.65;;;8.38;;
39314;SDS011;28703;44.412;11.918;2023-12-07T03:44:18;8.57;;;7.57;;
39314;SDS011;28703;44.412;11.918;2023-12-07T03:46:43;9.30;;;7.50;;
39314;SDS011;28703;44.412;11.918;2023-12-07T03:49:09;12.27;;;8.80;;
39314;SDS011;28703;44.412;11.918;2023-12-07T03:51:35;10.02;;;7.60;;
39314;SDS011;28703;44.412;11.918;2023-12-07T03:54:03;10.68;;;8.82;;
39314;SDS011;28703;44.412;11.918;2023-12-07T03:56:29;11.23;;;8.63;;
39314;SDS011;28703;44.412;11.918;2023-12-07T03:58:56;14.23;;;8.55;;
39314;SDS011;28703;44.412;11.918;2023-12-07T04:01:22;10.18;;;8.38;;
39314;SDS011;28703;44.412;11.918;2023-12-07T04:03:53;11.23;;;8.98;;
39314;SDS011;28703;44.412;11.918;2023-12-07T04:06:26;10.38;;;7.95;;
39314;SDS011;28703;44.412;11.918;2023-12-07T04:08:52;9.68;;;7.80;;
39314;SDS011;28703;44.412;11.918;2023-12-07T04:11:18;10.93;;;7.90;;
39314;SDS011;28703;44.412;11.918;2023-12-07T04:13:44;10.40;;;8.68;;
39314;SDS011;28703;44.412;11.918;2023-12-07T04:16:10;9.52;;;8.02;;
39314;SDS011;28703;44.412;11.918;2023-12-07T04:18:37;12.55;;;8.68;;
39314;SDS011;28703;44.412;11.918;2023-12-07T04:21:03;12.52;;;9.05;;
39314;SDS011;28703;44.412;11.918;2023-12-07T04:23:30;12.85;;;8.98;;
39314;SDS011;28703;44.412;11.918;2023-12-07T04:25:56;10.63;;;8.07;;
39314;SDS011;28703;44.412;11.918;2023-12-07T04:28:22;11.77;;;9.40;;
39314;SDS011;28703;44.412;11.918;2023-12-07T04:30:47;10.85;;;8.93;;
39314;SDS011;28703;44.412;11.918;2023-12-07T04:33:13;11.23;;;8.27;;
39314;SDS011;28703;44.412;11.918;2023-12-07T04:35:39;13.40;;;8.25;;
39314;SDS011;28703;44.412;11.918;2023-12-07T04:38:05;11.48;;;8.55;;
39314;SDS011;28703;44.412;11.918;2023-12-07T04:40:31;12.27;;;8.40;;
39314;SDS011;28703;44.412;11.918;2023-12-07T04:42:57;9.38;;;7.80;;
39314;SDS011;28703;44.412;11.918;2023-12-07T04:45:22;12.48;;;7.65;;
39314;SDS011;28703;44.412;11.918;2023-12-07T04:47:48;9.55;;;6.95;;
39314;SDS011;28703;44.412;11.918;2023-12-07T04:50:14;10.40;;;7.28;;
39314;SDS011;28703;44.412;11.918;2023-12-07T04:52:40;10.25;;;6.68;;
39314;SDS011;28703;44.412;11.918;2023-12-07T04:55:06;8.63;;;6.93;;
39314;SDS011;28703;44.412;11.918;2023-12-07T04:57:36;10.98;;;8.25;;
39314;SDS011;28703;44.412;11.918;2023-12-07T05:00:05;11.63;;;8.43;;
39314;SDS011;28703;44.412;11.918;2023-12-07T05:02:31;9.15;;;6.55;;
39314;SDS011;28703;44.412;11.918;2023-12-07T05:04:57;8.60;;;5.78;;
39314;SDS011;28703;44.412;11.918;2023-12-07T05:07:23;6.05;;;5.43;;
39314;SDS011;28703;44.412;11.918;2023-12-07T05:09:49;6.53;;;5.85;;
39314;SDS011;28703;44.412;11.918;2023-12-07T05:12:18;6.18;;;5.07;;
39314;SDS011;28703;44.412;11.918;2023-12-07T05:14:44;5.90;;;5.00;;
39314;SDS011;28703;44.412;11.918;2023-12-07T05:17:10;5.28;;;4.78;;
39314;SDS011;28703;44.412;11.918;2023-12-07T05:19:35;6.60;;;5.05;;
39314;SDS011;28703;44.412;11.918;2023-12-07T05:22:01;9.30;;;6.65;;
39314;SDS011;28703;44.412;11.918;2023-12-07T05:24:27;9.05;;;5.90;;
39314;SDS011;28703;44.412;11.918;2023-12-07T05:26:53;6.13;;;5.05;;
39314;SDS011;28703;44.412;11.918;2023-12-07T05:29:19;5.32;;;4.82;;
39314;SDS011;28703;44.412;11.918;2023-12-07T05:31:48;8.48;;;6.72;;
39314;SDS011;28703;44.412;11.918;2023-12-07T05:34:15;9.77;;;5.90;;
39314;SDS011;28703;44.412;11.918;2023-12-07T05:36:41;6.45;;;5.35;;
39314;SDS011;28703;44.412;11.918;2023-12-07T05:39:07;7.18;;;5.05;;
39314;SDS011;28703;44.412;11.918;2023-12-07T05:41:33;6.40;;;5.13;;
39314;SDS011;28703;44.412;11.918;2023-12-07T05:43:59;5.13;;;4.60;;
39314;SDS011;28703;44.412;11.918;2023-12-07T05:46:24;5.05;;;4.55;;
39314;SDS011;28703;44.412;11.918;2023-12-07T05:48:51;8.70;;;4.88;;
39314;SDS011;28703;44.412;11.918;2023-12-07T05:51:17;6.07;;;5.15;;
39314;SDS011;28703;44.412;11.918;2023-12-07T05:53:43;8.95;;;5.63;;
39314;SDS011;28703;44.412;11.918;2023-12-07T05:56:10;7.15;;;5.90;;
39314;SDS011;28703;44.412;11.918;2023-12-07T05:58:36;11.38;;;6.07;;
39314;SDS011;28703;44.412;11.918;2023-12-07T06:01:02;7.35;;;5.78;;
39314;SDS011;28703;44.412;11.918;2023-12-07T06:03:28;6.55;;;5.63;;
39314;SDS011;28703;44.412;11.918;2023-12-07T06:05:54;6.57;;;5.10;;
39314;SDS011;28703;44.412;11.918;2023-12-07T06:08:21;7.43;;;5.72;;
39314;SDS011;28703;44.412;11.918;2023-12-07T06:10:47;5.70;;;5.10;;
39314;SDS011;28703;44.412;11.918;2023-12-07T06:13:14;6.20;;;5.35;;
39314;SDS011;28703;44.412;11.918;2023-12-07T06:15:40;7.95;;;5.07;;
39314;SDS011;28703;44.412;11.918;2023-12-07T06:18:06;5.95;;;5.35;;
39314;SDS011;28703;44.412;11.918;2023-12-07T06:20:32;5.97;;;5.15;;
39314;SDS011;28703;44.412;11.918;2023-12-07T06:22:58;8.63;;;5.47;;
39314;SDS011;28703;44.412;11.918;2023-12-07T06:25:24;8.32;;;6.05;;
39314;SDS011;28703;44.412;11.918;2023-12-07T06:27:50;12.88;;;5.80;;
39314;SDS011;28703;44.412;11.918;2023-12-07T06:30:16;11.70;;;5.25;;
39314;SDS011;28703;44.412;11.918;2023-12-07T06:32:43;7.05;;;5.95;;
39314;SDS011;28703;44.412;11.918;2023-12-07T06:35:11;9.15;;;6.15;;
39314;SDS011;28703;44.412;11.918;2023-12-07T06:37:37;9.68;;;7.72;;
39314;SDS011;28703;44.412;11.918;2023-12-07T06:40:06;11.13;;;8.18;;
39314;SDS011;28703;44.412;11.918;2023-12-07T06:42:34;18.75;;;11.63;;
39314;SDS011;28703;44.412;11.918;2023-12-07T06:45:03;19.25;;;12.32;;
39314;SDS011;28703;44.412;11.918;2023-12-07T06:47:30;27.10;;;15.38;;
39314;SDS011;28703;44.412;11.918;2023-12-07T06:49:56;38.10;;;21.13;;
39314;SDS011;28703;44.412;11.918;2023-12-07T06:52:22;23.73;;;14.13;;
39314;SDS011;28703;44.412;11.918;2023-12-07T06:54:48;16.08;;;10.02;;
39314;SDS011;28703;44.412;11.918;2023-12-07T06:57:14;14.02;;;7.88;;
39314;SDS011;28703;44.412;11.918;2023-12-07T06:59:40;11.48;;;8.00;;
39314;SDS011;28703;44.412;11.918;2023-12-07T07:02:08;24.92;;;15.20;;
39314;SDS011;28703;44.412;11.918;2023-12-07T07:04:34;9.52;;;6.80;;
39314;SDS011;28703;44.412;11.918;2023-12-07T07:07:00;23.08;;;12.40;;
39314;SDS011;28703;44.412;11.918;2023-12-07T07:09:25;11.30;;;7.60;;
39314;SDS011;28703;44.412;11.918;2023-12-07T07:11:51;10.45;;;6.78;;
39314;SDS011;28703;44.412;11.918;2023-12-07T07:14:18;10.27;;;7.18;;
39314;SDS011;28703;44.412;11.918;2023-12-07T07:16:44;9.73;;;8.15;;
39314;SDS011;28703;44.412;11.918;2023-12-07T07:19:10;24.17;;;12.65;;
39314;SDS011;28703;44.412;11.918;2023-12-07T07:21:36;17.88;;;11.15;;
39314;SDS011;28703;44.412;11.918;2023-12-07T07:24:02;13.23;;;10.50;;
39314;SDS011;28703;44.412;11.918;2023-12-07T07:26:28;13.82;;;10.68;;
39314;SDS011;28703;44.412;11.918;2023-12-07T07:28:53;14.27;;;11.38;;
39314;SDS011;28703;44.412;11.918;2023-12-07T07:31:19;12.88;;;10.20;;
39314;SDS011;28703;44.412;11.918;2023-12-07T07:33:45;14.98;;;10.00;;
39314;SDS011;28703;44.412;11.918;2023-12-07T07:36:12;15.18;;;10.15;;
39314;SDS011;28703;44.412;11.918;2023-12-07T07:38:42;16.15;;;10.60;;
39314;SDS011;28703;44.412;11.918;2023-12-07T07:41:09;11.88;;;10.20;;
39314;SDS011;28703;44.412;11.918;2023-12-07T07:43:36;15.43;;;10.20;;
39314;SDS011;28703;44.412;11.918;2023-12-07T07:46:06;18.90;;;11.85;;
39314;SDS011;28703;44.412;11.918;2023-12-07T07:48:31;20.80;;;15.57;;
39314;SDS011;28703;44.412;11.918;2023-12-07T07:50:57;20.48;;;14.52;;
39314;SDS011;28703;44.412;11.918;2023-12-07T07:53:24;18.90;;;14.00;;
39314;SDS011;28703;44.412;11.918;2023-12-07T07:55:49;18.27;;;15.07;;
39314;SDS011;28703;44.412;11.918;2023-12-07T07:58:15;22.88;;;16.10;;
39314;SDS011;28703;44.412;11.918;2023-12-07T08:00:41;32.30;;;20.50;;
39314;SDS011;28703;44.412;11.918;2023-12-07T08:03:07;27.35;;;21.08;;
39314;SDS011;28703;44.412;11.918;2023-12-07T08:05:33;29.88;;;19.55;;
39314;SDS011;28703;44.412;11.918;2023-12-07T08:07:59;20.38;;;15.10;;
39314;SDS011;28703;44.412;11.918;2023-12-07T08:10:25;16.90;;;13.48;;
39314;SDS011;28703;44.412;11.918;2023-12-07T08:12:51;15.93;;;12.80;;
39314;SDS011;28703;44.412;11.918;2023-12-07T08:15:16;16.58;;;11.52;;
39314;SDS011;28703;44.412;11.918;2023-12-07T08:17:42;13.65;;;11.40;;
39314;SDS011;28703;44.412;11.918;2023-12-07T08:20:08;14.35;;;11.25;;
39314;SDS011;28703;44.412;11.918;2023-12-07T08:22:38;16.65;;;10.98;;
39314;SDS011;28703;44.412;11.918;2023-12-07T08:25:04;13.45;;;11.10;;
39314;SDS011;28703;44.412;11.918;2023-12-07T08:27:33;16.38;;;10.75;;
39314;SDS011;28703;44.412;11.918;2023-12-07T08:30:00;11.90;;;9.70;;
39314;SDS011;28703;44.412;11.918;2023-12-07T08:32:26;12.00;;;8.90;;
39314;SDS011;28703;44.412;11.918;2023-12-07T08:34:52;12.80;;;9.40;;
39314;SDS011;28703;44.412;11.918;2023-12-07T08:37:18;12.65;;;9.15;;
39314;SDS011;28703;44.412;11.918;2023-12-07T08:39:44;9.75;;;8.40;;
39314;SDS011;28703;44.412;11.918;2023-12-07T08:42:11;9.90;;;7.95;;
39314;SDS011;28703;44.412;11.918;2023-12-07T08:44:37;10.45;;;7.85;;
39314;SDS011;28703;44.412;11.918;2023-12-07T08:47:03;12.98;;;8.13;;
39314;SDS011;28703;44.412;11.918;2023-12-07T08:49:30;45.10;;;11.65;;
39314;SDS011;28703;44.412;11.918;2023-12-07T08:51:56;19.67;;;10.05;;
39314;SDS011;28703;44.412;11.918;2023-12-07T08:54:22;20.48;;;10.55;;
39314;SDS011;28703;44.412;11.918;2023-12-07T08:56:48;12.40;;;10.15;;
39314;SDS011;28703;44.412;11.918;2023-12-07T08:59:14;10.98;;;9.65;;
39314;SDS011;28703;44.412;11.918;2023-12-07T09:01:40;12.52;;;9.85;;
39314;SDS011;28703;44.412;11.918;2023-12-07T09:04:05;13.85;;;10.18;;
39314;SDS011;28703;44.412;11.918;2023-12-07T09:06:31;11.30;;;9.98;;
39314;SDS011;28703;44.412;11.918;2023-12-07T09:08:57;13.70;;;9.75;;
39314;SDS011;28703;44.412;11.918;2023-12-07T09:11:23;14.00;;;11.05;;
39314;SDS011;28703;44.412;11.918;2023-12-07T09:13:49;17.60;;;12.27;;
39314;SDS011;28703;44.412;11.918;2023-12-07T09:16:15;18.80;;;13.52;;
39314;SDS011;28703;44.412;11.918;2023-12-07T09:18:41;20.20;;;13.25;;
39314;SDS011;28703;44.412;11.918;2023-12-07T09:21:08;20.17;;;14.18;;
39314;SDS011;28703;44.412;11.918;2023-12-07T09:23:34;20.30;;;14.30;;
39314;SDS011;28703;44.412;11.918;2023-12-07T09:26:00;18.10;;;14.18;;
39314;SDS011;28703;44.412;11.918;2023-12-07T09:28:26;16.48;;;14.23;;
39314;SDS011;28703;44.412;11.918;2023-12-07T09:30:52;24.50;;;14.98;;
39314;SDS011;28703;44.412;11.918;2023-12-07T09:33:18;19.83;;;14.70;;
39314;SDS011;28703;44.412;11.918;2023-12-07T09:35:44;16.80;;;13.85;;
39314;SDS011;28703;44.412;11.918;2023-12-07T09:38:10;23.38;;;14.85;;
39314;SDS011;28703;44.412;11.918;2023-12-07T09:40:35;18.42;;;14.95;;
39314;SDS011;28703;44.412;11.918;2023-12-07T09:43:01;18.88;;;14.93;;
39314;SDS011;28703;44.412;11.918;2023-12-07T09:45:27;21.02;;;16.35;;
39314;SDS011;28703;44.412;11.918;2023-12-07T09:47:54;21.63;;;17.10;;
39314;SDS011;28703;44.412;11.918;2023-12-07T09:50:21;23.83;;;19.35;;
39314;SDS011;28703;44.412;11.918;2023-12-07T09:52:48;25.10;;;19.08;;
39314;SDS011;28703;44.412;11.918;2023-12-07T09:55:18;26.85;;;21.08;;
39314;SDS011;28703;44.412;11.918;2023-12-07T09:57:48;25.23;;;19.98;;
39314;SDS011;28703;44.412;11.918;2023-12-07T10:00:14;27.10;;;19.48;;
39314;SDS011;28703;44.412;11.918;2023-12-07T10:02:41;24.77;;;18.65;;
39314;SDS011;28703;44.412;11.918;2023-12-07T10:05:08;23.10;;;18.27;;
39314;SDS011;28703;44.412;11.918;2023-12-07T10:07:36;25.50;;;17.55;;
39314;SDS011;28703;44.412;11.918;2023-12-07T10:10:04;22.80;;;17.55;;
39314;SDS011;28703;44.412;11.918;2023-12-07T10:12:32;24.52;;;19.20;;
39314;SDS011;28703;44.412;11.918;2023-12-07T10:15:11;25.27;;;19.98;;
39314;SDS011;28703;44.412;11.918;2023-12-07T10:17:50;28.88;;;19.52;;
39314;SDS011;28703;44.412;11.918;2023-12-07T10:20:17;25.10;;;17.52;;
39314;SDS011;28703;44.412;11.918;2023-12-07T10:22:45;28.85;;;20.42;;
39314;SDS011;28703;44.412;11.918;2023-12-07T10:25:11;23.45;;;18.83;;
39314;SDS011;28703;44.412;11.918;2023-12-07T10:27:38;22.23;;;17.80;;
39314;SDS011;28703;44.412;11.918;2023-12-07T10:30:06;23.67;;;17.60;;
39314;SDS011;28703;44.412;11.918;2023-12-07T10:32:37;22.70;;;16.73;;
39314;SDS011;28703;44.412;11.918;2023-12-07T10:35:07;32.05;;;18.15;;
39314;SDS011;28703;44.412;11.918;2023-12-07T10:37:33;21.77;;;16.48;;
39314;SDS011;28703;44.412;11.918;2023-12-07T10:39:59;23.02;;;16.85;;
39314;SDS011;28703;44.412;11.918;2023-12-07T10:42:25;22.85;;;17.63;;
39314;SDS011;28703;44.412;11.918;2023-12-07T10:44:54;23.13;;;19.15;;
39314;SDS011;28703;44.412;11.918;2023-12-07T10:47:26;20.63;;;17.67;;
39314;SDS011;28703;44.412;11.918;2023-12-07T10:49:54;23.35;;;18.90;;
39314;SDS011;28703;44.412;11.918;2023-12-07T10:52:24;26.58;;;19.10;;
39314;SDS011;28703;44.412;11.918;2023-12-07T10:54:53;24.38;;;19.05;;
39314;SDS011;28703;44.412;11.918;2023-12-07T10:57:30;26.23;;;21.38;;
39314;SDS011;28703;44.412;11.918;2023-12-07T10:59:59;28.60;;;21.27;;
39314;SDS011;28703;44.412;11.918;2023-12-07T11:02:26;24.70;;;20.38;;
39314;SDS011;28703;44.412;11.918;2023-12-07T11:04:54;21.65;;;19.35;;
39314;SDS011;28703;44.412;11.918;2023-12-07T11:07:22;25.23;;;19.63;;
39314;SDS011;28703;44.412;11.918;2023-12-07T11:10:00;24.77;;;19.35;;
39314;SDS011;28703;44.412;11.918;2023-12-07T11:12:42;23.52;;;20.55;;
39314;SDS011;28703;44.412;11.918;2023-12-07T11:15:19;24.65;;;20.40;;
39314;SDS011;28703;44.412;11.918;2023-12-07T11:17:55;22.65;;;19.65;;
39314;SDS011;28703;44.412;11.918;2023-12-07T11:20:22;22.98;;;20.48;;
39314;SDS011;28703;44.412;11.918;2023-12-07T11:23:10;32.20;;;24.73;;
39314;SDS011;28703;44.412;11.918;2023-12-07T11:25:36;26.55;;;22.15;;
39314;SDS011;28703;44.412;11.918;2023-12-07T11:28:03;29.73;;;23.77;;
39314;SDS011;28703;44.412;11.918;2023-12-07T11:30:31;25.23;;;22.13;;
39314;SDS011;28703;44.412;11.918;2023-12-07T11:32:59;30.08;;;23.75;;
39314;SDS011;28703;44.412;11.918;2023-12-07T11:35:25;29.38;;;22.52;;
39314;SDS011;28703;44.412;11.918;2023-12-07T11:40:26;37.10;;;26.50;;
39314;SDS011;28703;44.412;11.918;2023-12-07T11:42:52;30.77;;;24.42;;
39314;SDS011;28703;44.412;11.918;2023-12-07T11:48:10;30.77;;;24.42;;
39314;SDS011;28703;44.412;11.918;2023-12-07T11:50:52;29.25;;;24.45;;
39314;SDS011;28703;44.412;11.918;2023-12-07T11:53:36;34.03;;;24.38;;
39314;SDS011;28703;44.412;11.918;2023-12-07T11:56:06;27.10;;;24.15;;
39314;SDS011;28703;44.412;11.918;2023-12-07T11:58:36;27.25;;;22.80;;
39314;SDS011;28703;44.412;11.918;2023-12-07T12:01:03;38.92;;;22.98;;
39314;SDS011;28703;44.412;11.918;2023-12-07T12:03:30;23.40;;;20.85;;
39314;SDS011;28703;44.412;11.918;2023-12-07T12:05:57;25.88;;;21.05;;
39314;SDS011;28703;44.412;11.918;2023-12-07T12:08:23;23.55;;;19.67;;
39314;SDS011;28703;44.412;11.918;2023-12-07T12:10:50;27.40;;;19.85;;
39314;SDS011;28703;44.412;11.918;2023-12-07T12:13:18;23.70;;;19.45;;
39314;SDS011;28703;44.412;11.918;2023-12-07T12:15:44;22.95;;;18.35;;
39314;SDS011;28703;44.412;11.918;2023-12-07T12:18:14;21.73;;;19.05;;
39314;SDS011;28703;44.412;11.918;2023-12-07T12:20:41;21.20;;;18.80;;
39314;SDS011;28703;44.412;11.918;2023-12-07T12:23:10;22.45;;;18.70;;
39314;SDS011;28703;44.412;11.918;2023-12-07T12:25:36;25.40;;;20.52;;
39314;SDS011;28703;44.412;11.918;2023-12-07T12:28:02;25.63;;;20.25;;
39314;SDS011;28703;44.412;11.918;2023-12-07T12:30:30;26.70;;;20.83;;
39314;SDS011;28703;44.412;11.918;2023-12-07T12:32:56;23.73;;;19.85;;
39314;SDS011;28703;44.412;11.918;2023-12-07T12:35:22;21.85;;;18.73;;
39314;SDS011;28703;44.412;11.918;2023-12-07T12:37:49;22.45;;;17.90;;
39314;SDS011;28703;44.412;11.918;2023-12-07T12:40:18;23.38;;;17.00;;
39314;SDS011;28703;44.412;11.918;2023-12-07T12:42:46;24.73;;;16.48;;
39314;SDS011;28703;44.412;11.918;2023-12-07T12:45:13;18.25;;;16.00;;
39314;SDS011;28703;44.412;11.918;2023-12-07T12:47:41;24.05;;;17.80;;
39314;SDS011;28703;44.412;11.918;2023-12-07T12:50:08;19.52;;;16.17;;
39314;SDS011;28703;44.412;11.918;2023-12-07T12:52:35;19.80;;;17.23;;
39314;SDS011;28703;44.412;11.918;2023-12-07T12:55:02;18.45;;;16.40;;
39314;SDS011;28703;44.412;11.918;2023-12-07T12:57:31;23.48;;;16.30;;
39314;SDS011;28703;44.412;11.918;2023-12-07T12:59:57;20.25;;;16.73;;
39314;SDS011;28703;44.412;11.918;2023-12-07T13:02:26;24.30;;;17.60;;
39314;SDS011;28703;44.412;11.918;2023-12-07T13:04:51;21.58;;;17.77;;
39314;SDS011;28703;44.412;11.918;2023-12-07T13:07:18;20.42;;;17.92;;
39314;SDS011;28703;44.412;11.918;2023-12-07T13:09:44;20.52;;;18.00;;
39314;SDS011;28703;44.412;11.918;2023-12-07T13:12:10;25.33;;;18.65;;
39314;SDS011;28703;44.412;11.918;2023-12-07T13:14:36;26.10;;;19.13;;
39314;SDS011;28703;44.412;11.918;2023-12-07T13:17:04;20.85;;;17.35;;
39314;SDS011;28703;44.412;11.918;2023-12-07T13:19:32;28.85;;;21.83;;
39314;SDS011;28703;44.412;11.918;2023-12-07T13:21:58;25.52;;;19.35;;
39314;SDS011;28703;44.412;11.918;2023-12-07T13:24:25;28.58;;;21.55;;
39314;SDS011;28703;44.412;11.918;2023-12-07T13:26:51;27.85;;;20.80;;
39314;SDS011;28703;44.412;11.918;2023-12-07T13:29:16;21.90;;;19.02;;
39314;SDS011;28703;44.412;11.918;2023-12-07T13:31:42;25.73;;;21.35;;
39314;SDS011;28703;44.412;11.918;2023-12-07T13:34:08;23.63;;;20.98;;
39314;SDS011;28703;44.412;11.918;2023-12-07T13:36:34;23.52;;;20.40;;
39314;SDS011;28703;44.412;11.918;2023-12-07T13:39:01;33.35;;;20.10;;
39314;SDS011;28703;44.412;11.918;2023-12-07T13:41:29;23.85;;;18.67;;
39314;SDS011;28703;44.412;11.918;2023-12-07T13:43:55;26.85;;;21.17;;
39314;SDS011;28703;44.412;11.918;2023-12-07T13:46:21;24.05;;;19.00;;
39314;SDS011;28703;44.412;11.918;2023-12-07T13:48:48;27.73;;;19.92;;
39314;SDS011;28703;44.412;11.918;2023-12-07T13:51:15;28.77;;;21.20;;
39314;SDS011;28703;44.412;11.918;2023-12-07T13:53:41;24.63;;;20.15;;
39314;SDS011;28703;44.412;11.918;2023-12-07T13:56:07;27.83;;;20.40;;
39314;SDS011;28703;44.412;11.918;2023-12-07T13:58:33;26.13;;;20.52;;
39314;SDS011;28703;44.412;11.918;2023-12-07T14:01:02;24.48;;;19.48;;
39314;SDS011;28703;44.412;11.918;2023-12-07T14:03:28;28.58;;;20.10;;
39314;SDS011;28703;44.412;11.918;2023-12-07T14:05:54;25.25;;;19.83;;
39314;SDS011;28703;44.412;11.918;2023-12-07T14:08:20;24.42;;;20.15;;
39314;SDS011;28703;44.412;11.918;2023-12-07T14:10:46;24.17;;;20.15;;
39314;SDS011;28703;44.412;11.918;2023-12-07T14:13:12;25.88;;;19.98;;
39314;SDS011;28703;44.412;11.918;2023-12-07T14:15:38;28.27;;;21.55;;
39314;SDS011;28703;44.412;11.918;2023-12-07T14:18:04;35.40;;;23.35;;
39314;SDS011;28703;44.412;11.918;2023-12-07T14:20:30;28.58;;;23.15;;